sensor_id;sensor_type;location;lat;lon;timestamp;pressure;altitude;pressure_sealevel;temperature;humidity
46722;BME280;32455;43.430;23.136;2023-05-02T00:01:24;98426.94;;;9.28;100.00
46722;BME280;32455;43.430;23.136;2023-05-02T00:04:09;98436.25;;;9.13;100.00
46722;BME280;32455;43.430;23.136;2023-05-02T00:06:55;98434.38;;;9.20;100.00
46722;BME280;32455;43.430;23.136;2023-05-02T00:09:40;98439.13;;;9.18;100.00
46722;BME280;32455;43.430;23.136;2023-05-02T00:12:25;98447.16;;;9.11;100.00
46722;BME280;32455;43.430;23.136;2023-05-02T00:15:11;98413.34;;;8.77;100.00
46722;BME280;32455;43.430;23.136;2023-05-02T00:17:56;98440.16;;;8.97;100.00
46722;BME280;32455;43.430;23.136;2023-05-02T00:20:41;98429.84;;;8.94;100.00
46722;BME280;32455;43.430;23.136;2023-05-02T00:23:27;98424.28;;;8.89;100.00
46722;BME280;32455;43.430;23.136;2023-05-02T00:26:12;98429.25;;;8.92;100.00
46722;BME280;32455;43.430;23.136;2023-05-02T00:28:57;98447.78;;;9.26;100.00
46722;BME280;32455;43.430;23.136;2023-05-02T00:31:43;98433.72;;;9.38;100.00
46722;BME280;32455;43.430;23.136;2023-05-02T00:34:29;98440.56;;;9.34;100.00
46722;BME280;32455;43.430;23.136;2023-05-02T00:37:15;98446.97;;;9.26;100.00
46722;BME280;32455;43.430;23.136;2023-05-02T00:40:00;98451.50;;;9.25;100.00
46722;BME280;32455;43.430;23.136;2023-05-02T00:42:46;98423.44;;;8.95;100.00
46722;BME280;32455;43.430;23.136;2023-05-02T00:45:31;98445.72;;;9.22;100.00
46722;BME280;32455;43.430;23.136;2023-05-02T00:48:17;98430.06;;;9.12;100.00
46722;BME280;32455;43.430;23.136;2023-05-02T00:51:05;98442.63;;;8.98;100.00
46722;BME280;32455;43.430;23.136;2023-05-02T00:53:52;98436.44;;;8.71;100.00
46722;BME280;32455;43.430;23.136;2023-05-02T00:56:37;98456.56;;;8.47;100.00
46722;BME280;32455;43.430;23.136;2023-05-02T00:59:24;98447.28;;;8.43;100.00
46722;BME280;32455;43.430;23.136;2023-05-02T01:05:38;98449.28;;;8.28;100.00
46722;BME280;32455;43.430;23.136;2023-05-02T01:08:48;98446.06;;;8.46;100.00
46722;BME280;32455;43.430;23.136;2023-05-02T01:14:39;98458.84;;;8.44;100.00
46722;BME280;32455;43.430;23.136;2023-05-02T01:17:28;98436.03;;;8.13;100.00
46722;BME280;32455;43.430;23.136;2023-05-02T01:20:19;98461.97;;;8.13;100.00
46722;BME280;32455;43.430;23.136;2023-05-02T01:23:10;98452.09;;;8.13;100.00
46722;BME280;32455;43.430;23.136;2023-05-02T01:29:02;98449.06;;;8.23;100.00
46722;BME280;32455;43.430;23.136;2023-05-02T01:31:49;98457.66;;;8.12;100.00
46722;BME280;32455;43.430;23.136;2023-05-02T01:34:37;98450.28;;;8.20;100.00
46722;BME280;32455;43.430;23.136;2023-05-02T01:37:24;98445.34;;;8.24;100.00
46722;BME280;32455;43.430;23.136;2023-05-02T01:40:15;98433.19;;;8.15;100.00
46722;BME280;32455;43.430;23.136;2023-05-02T01:43:02;98457.66;;;8.12;100.00
46722;BME280;32455;43.430;23.136;2023-05-02T01:45:50;98449.06;;;8.23;100.00
46722;BME280;32455;43.430;23.136;2023-05-02T01:48:37;98460.72;;;8.09;100.00
46722;BME280;32455;43.430;23.136;2023-05-02T01:51:29;98460.00;;;7.87;100.00
46722;BME280;32455;43.430;23.136;2023-05-02T01:54:19;98442.69;;;7.83;100.00
46722;BME280;32455;43.430;23.136;2023-05-02T01:57:06;98429.63;;;8.08;100.00
46722;BME280;32455;43.430;23.136;2023-05-02T01:59:55;98444.31;;;8.18;100.00
46722;BME280;32455;43.430;23.136;2023-05-02T02:02:42;98457.69;;;8.25;100.00
46722;BME280;32455;43.430;23.136;2023-05-02T02:05:30;98450.81;;;8.02;100.00
46722;BME280;32455;43.430;23.136;2023-05-02T02:08:16;98428.22;;;7.64;100.00
46722;BME280;32455;43.430;23.136;2023-05-02T02:11:07;98447.31;;;8.02;100.00
46722;BME280;32455;43.430;23.136;2023-05-02T02:14:00;98447.59;;;8.14;100.00
46722;BME280;32455;43.430;23.136;2023-05-02T02:16:48;98450.31;;;8.27;100.00
46722;BME280;32455;43.430;23.136;2023-05-02T02:19:35;98442.38;;;8.53;100.00
46722;BME280;32455;43.430;23.136;2023-05-02T02:22:23;98446.00;;;8.33;100.00
46722;BME280;32455;43.430;23.136;2023-05-02T02:25:12;98446.34;;;8.16;100.00
46722;BME280;32455;43.430;23.136;2023-05-02T02:27:58;98425.94;;;8.09;100.00
46722;BME280;32455;43.430;23.136;2023-05-02T02:30:44;98431.50;;;8.07;100.00
46722;BME280;32455;43.430;23.136;2023-05-02T02:33:30;98444.72;;;8.15;100.00
46722;BME280;32455;43.430;23.136;2023-05-02T02:36:23;98429.56;;;8.42;100.00
46722;BME280;32455;43.430;23.136;2023-05-02T02:42:12;98448.47;;;8.34;100.00
46722;BME280;32455;43.430;23.136;2023-05-02T02:45:13;98443.66;;;8.84;100.00
46722;BME280;32455;43.430;23.136;2023-05-02T02:48:25;98421.69;;;8.34;100.00
46722;BME280;32455;43.430;23.136;2023-05-02T02:51:31;98448.34;;;8.56;100.00
46722;BME280;32455;43.430;23.136;2023-05-02T02:54:34;98441.84;;;8.23;100.00
46722;BME280;32455;43.430;23.136;2023-05-02T02:57:33;98443.19;;;7.93;100.00
46722;BME280;32455;43.430;23.136;2023-05-02T03:00:24;98452.94;;;8.14;100.00
46722;BME280;32455;43.430;23.136;2023-05-02T03:03:13;98467.16;;;8.21;100.00
46722;BME280;32455;43.430;23.136;2023-05-02T03:05:59;98449.13;;;7.95;100.00
46722;BME280;32455;43.430;23.136;2023-05-02T03:08:45;98411.88;;;7.52;100.00
46722;BME280;32455;43.430;23.136;2023-05-02T03:11:30;98450.22;;;7.66;100.00
46722;BME280;32455;43.430;23.136;2023-05-02T03:14:15;98455.53;;;7.94;100.00
46722;BME280;32455;43.430;23.136;2023-05-02T03:17:01;98460.66;;;7.89;100.00
46722;BME280;32455;43.430;23.136;2023-05-02T03:19:46;98463.34;;;7.95;100.00
46722;BME280;32455;43.430;23.136;2023-05-02T03:22:31;98463.34;;;7.61;100.00
46722;BME280;32455;43.430;23.136;2023-05-02T03:25:16;98454.63;;;7.80;100.00
46722;BME280;32455;43.430;23.136;2023-05-02T03:28:02;98469.44;;;7.76;100.00
46722;BME280;32455;43.430;23.136;2023-05-02T03:30:47;98467.09;;;8.01;100.00
46722;BME280;32455;43.430;23.136;2023-05-02T03:33:33;98454.97;;;7.70;100.00
46722;BME280;32455;43.430;23.136;2023-05-02T03:36:18;98467.03;;;7.94;100.00
46722;BME280;32455;43.430;23.136;2023-05-02T03:39:04;98479.63;;;8.00;100.00
46722;BME280;32455;43.430;23.136;2023-05-02T03:41:50;98470.22;;;8.11;100.00
46722;BME280;32455;43.430;23.136;2023-05-02T03:44:36;98478.25;;;8.11;100.00
46722;BME280;32455;43.430;23.136;2023-05-02T03:47:21;98459.78;;;8.29;100.00
46722;BME280;32455;43.430;23.136;2023-05-02T03:50:07;98455.78;;;8.73;100.00
46722;BME280;32455;43.430;23.136;2023-05-02T03:52:52;98466.97;;;8.97;100.00
46722;BME280;32455;43.430;23.136;2023-05-02T03:55:42;98474.38;;;9.61;100.00
46722;BME280;32455;43.430;23.136;2023-05-02T03:58:27;98479.47;;;10.47;100.00
46722;BME280;32455;43.430;23.136;2023-05-02T04:01:15;98487.19;;;10.37;100.00
46722;BME280;32455;43.430;23.136;2023-05-02T04:04:00;98483.66;;;9.45;100.00
46722;BME280;32455;43.430;23.136;2023-05-02T04:06:46;98497.50;;;9.49;100.00
46722;BME280;32455;43.430;23.136;2023-05-02T04:09:31;98488.22;;;9.51;100.00
46722;BME280;32455;43.430;23.136;2023-05-02T04:12:16;98477.88;;;9.68;100.00
46722;BME280;32455;43.430;23.136;2023-05-02T04:15:01;98498.41;;;10.01;100.00
46722;BME280;32455;43.430;23.136;2023-05-02T04:17:46;98487.25;;;10.11;100.00
46722;BME280;32455;43.430;23.136;2023-05-02T04:20:32;98483.34;;;10.07;100.00
46722;BME280;32455;43.430;23.136;2023-05-02T04:23:17;98490.28;;;10.34;100.00
46722;BME280;32455;43.430;23.136;2023-05-02T04:26:03;98456.81;;;10.37;100.00
46722;BME280;32455;43.430;23.136;2023-05-02T04:28:48;98496.09;;;10.76;100.00
46722;BME280;32455;43.430;23.136;2023-05-02T04:31:33;98513.66;;;11.10;100.00
46722;BME280;32455;43.430;23.136;2023-05-02T04:34:19;98488.03;;;11.33;100.00
46722;BME280;32455;43.430;23.136;2023-05-02T04:37:04;98495.06;;;11.77;100.00
46722;BME280;32455;43.430;23.136;2023-05-02T04:39:49;98501.34;;;11.71;100.00
46722;BME280;32455;43.430;23.136;2023-05-02T04:42:35;98507.84;;;11.63;100.00
46722;BME280;32455;43.430;23.136;2023-05-02T04:45:21;98513.88;;;11.59;100.00
46722;BME280;32455;43.430;23.136;2023-05-02T04:48:06;98493.78;;;11.86;100.00
46722;BME280;32455;43.430;23.136;2023-05-02T04:50:52;98503.72;;;11.86;100.00
46722;BME280;32455;43.430;23.136;2023-05-02T04:53:40;98513.59;;;11.67;100.00
46722;BME280;32455;43.430;23.136;2023-05-02T04:56:25;98502.44;;;11.88;100.00
46722;BME280;32455;43.430;23.136;2023-05-02T04:59:11;98512.50;;;11.74;100.00
46722;BME280;32455;43.430;23.136;2023-05-02T05:01:56;98508.47;;;12.09;100.00
46722;BME280;32455;43.430;23.136;2023-05-02T05:04:41;98512.88;;;12.21;100.00
46722;BME280;32455;43.430;23.136;2023-05-02T05:07:26;98485.94;;;12.21;100.00
46722;BME280;32455;43.430;23.136;2023-05-02T05:10:11;98485.00;;;12.46;100.00
46722;BME280;32455;43.430;23.136;2023-05-02T05:12:57;98470.63;;;12.52;100.00
46722;BME280;32455;43.430;23.136;2023-05-02T05:15:42;98526.00;;;12.96;100.00
46722;BME280;32455;43.430;23.136;2023-05-02T05:18:28;98532.41;;;12.84;100.00
46722;BME280;32455;43.430;23.136;2023-05-02T05:21:13;98530.41;;;12.79;100.00
46722;BME280;32455;43.430;23.136;2023-05-02T05:23:58;98532.59;;;12.70;100.00
46722;BME280;32455;43.430;23.136;2023-05-02T05:26:43;98525.41;;;12.64;100.00
46722;BME280;32455;43.430;23.136;2023-05-02T05:29:30;98556.56;;;12.60;100.00
46722;BME280;32455;43.430;23.136;2023-05-02T05:32:17;98553.19;;;12.65;100.00
46722;BME280;32455;43.430;23.136;2023-05-02T05:35:02;98546.16;;;12.45;100.00
46722;BME280;32455;43.430;23.136;2023-05-02T05:37:48;98544.66;;;12.31;100.00
46722;BME280;32455;43.430;23.136;2023-05-02T05:40:34;98527.34;;;11.84;100.00
46722;BME280;32455;43.430;23.136;2023-05-02T05:43:19;98538.53;;;12.42;100.00
46722;BME280;32455;43.430;23.136;2023-05-02T05:46:05;98551.38;;;12.77;100.00
46722;BME280;32455;43.430;23.136;2023-05-02T05:48:51;98546.69;;;13.02;100.00
46722;BME280;32455;43.430;23.136;2023-05-02T05:51:36;98539.03;;;13.30;100.00
46722;BME280;32455;43.430;23.136;2023-05-02T05:54:22;98550.28;;;13.26;100.00
46722;BME280;32455;43.430;23.136;2023-05-02T05:57:06;98533.13;;;13.21;100.00
46722;BME280;32455;43.430;23.136;2023-05-02T05:59:52;98540.97;;;13.52;100.00
46722;BME280;32455;43.430;23.136;2023-05-02T06:02:37;98528.28;;;13.65;100.00
46722;BME280;32455;43.430;23.136;2023-05-02T06:05:22;98548.84;;;13.54;100.00
46722;BME280;32455;43.430;23.136;2023-05-02T06:08:08;98546.09;;;13.31;100.00
46722;BME280;32455;43.430;23.136;2023-05-02T06:10:53;98533.81;;;13.46;100.00
46722;BME280;32455;43.430;23.136;2023-05-02T06:13:38;98541.56;;;13.78;100.00
46722;BME280;32455;43.430;23.136;2023-05-02T06:16:22;98548.28;;;13.99;100.00
46722;BME280;32455;43.430;23.136;2023-05-02T06:19:07;98539.25;;;14.05;100.00
46722;BME280;32455;43.430;23.136;2023-05-02T06:21:53;98539.44;;;14.27;99.77
46722;BME280;32455;43.430;23.136;2023-05-02T06:24:38;98538.72;;;14.43;98.82
46722;BME280;32455;43.430;23.136;2023-05-02T06:27:24;98555.38;;;14.64;99.76
46722;BME280;32455;43.430;23.136;2023-05-02T06:30:09;98561.06;;;14.91;93.00
46722;BME280;32455;43.430;23.136;2023-05-02T06:32:54;98560.19;;;15.02;91.20
46722;BME280;32455;43.430;23.136;2023-05-02T06:35:39;98544.47;;;14.99;89.09
46722;BME280;32455;43.430;23.136;2023-05-02T06:38:25;98559.88;;;15.15;89.94
46722;BME280;32455;43.430;23.136;2023-05-02T06:41:13;98548.13;;;15.38;88.03
46722;BME280;32455;43.430;23.136;2023-05-02T06:44:01;98553.88;;;15.59;86.66
46722;BME280;32455;43.430;23.136;2023-05-02T06:46:47;98558.25;;;15.60;88.33
46722;BME280;32455;43.430;23.136;2023-05-02T06:49:32;98562.16;;;15.35;88.21
46722;BME280;32455;43.430;23.136;2023-05-02T06:52:18;98558.38;;;15.82;87.51
46722;BME280;32455;43.430;23.136;2023-05-02T06:55:03;98556.59;;;16.09;85.92
46722;BME280;32455;43.430;23.136;2023-05-02T06:57:53;98563.94;;;16.31;85.82
46722;BME280;32455;43.430;23.136;2023-05-02T07:00:38;98560.06;;;16.43;86.52
46722;BME280;32455;43.430;23.136;2023-05-02T07:03:24;98546.00;;;16.46;84.77
46722;BME280;32455;43.430;23.136;2023-05-02T07:06:09;98554.47;;;16.72;87.34
46722;BME280;32455;43.430;23.136;2023-05-02T07:08:54;98546.50;;;16.87;85.03
46722;BME280;32455;43.430;23.136;2023-05-02T07:11:39;98554.53;;;16.99;84.86
46722;BME280;32455;43.430;23.136;2023-05-02T07:14:24;98557.06;;;17.06;82.85
46722;BME280;32455;43.430;23.136;2023-05-02T07:17:08;98549.88;;;17.21;80.77
46722;BME280;32455;43.430;23.136;2023-05-02T07:19:53;98561.94;;;17.31;75.78
46722;BME280;32455;43.430;23.136;2023-05-02T07:22:39;98561.81;;;17.47;74.23
46722;BME280;32455;43.430;23.136;2023-05-02T07:25:24;98562.50;;;17.65;70.20
46722;BME280;32455;43.430;23.136;2023-05-02T07:28:09;98559.84;;;17.70;68.28
46722;BME280;32455;43.430;23.136;2023-05-02T07:30:55;98567.69;;;17.98;66.40
46722;BME280;32455;43.430;23.136;2023-05-02T07:33:39;98550.31;;;17.99;67.79
46722;BME280;32455;43.430;23.136;2023-05-02T07:36:25;98570.09;;;18.32;67.13
46722;BME280;32455;43.430;23.136;2023-05-02T07:39:11;98555.25;;;18.55;65.67
46722;BME280;32455;43.430;23.136;2023-05-02T07:41:57;98556.47;;;18.80;64.52
46722;BME280;32455;43.430;23.136;2023-05-02T07:44:42;98560.56;;;18.87;65.19
46722;BME280;32455;43.430;23.136;2023-05-02T07:47:27;98551.06;;;18.90;62.35
46722;BME280;32455;43.430;23.136;2023-05-02T07:50:13;98565.28;;;19.17;64.08
46722;BME280;32455;43.430;23.136;2023-05-02T07:52:58;98568.59;;;19.24;56.72
46722;BME280;32455;43.430;23.136;2023-05-02T07:55:44;98555.25;;;19.28;56.51
46722;BME280;32455;43.430;23.136;2023-05-02T07:58:30;98564.56;;;19.58;55.47
46722;BME280;32455;43.430;23.136;2023-05-02T08:01:14;98565.69;;;19.62;52.68
46722;BME280;32455;43.430;23.136;2023-05-02T08:03:59;98561.59;;;19.74;54.95
46722;BME280;32455;43.430;23.136;2023-05-02T08:06:45;98551.47;;;19.90;53.96
46722;BME280;32455;43.430;23.136;2023-05-02T08:09:30;98547.66;;;20.07;52.94
46722;BME280;32455;43.430;23.136;2023-05-02T08:12:16;98550.34;;;20.17;53.23
46722;BME280;32455;43.430;23.136;2023-05-02T08:15:05;98549.25;;;20.23;51.20
46722;BME280;32455;43.430;23.136;2023-05-02T08:17:50;98561.84;;;20.09;52.86
46722;BME280;32455;43.430;23.136;2023-05-02T08:20:36;98548.41;;;20.33;53.01
46722;BME280;32455;43.430;23.136;2023-05-02T08:23:21;98543.47;;;20.45;50.68
46722;BME280;32455;43.430;23.136;2023-05-02T08:26:07;98553.78;;;20.68;50.48
46722;BME280;32455;43.430;23.136;2023-05-02T08:28:53;98560.84;;;20.80;48.73
46722;BME280;32455;43.430;23.136;2023-05-02T08:31:41;98549.63;;;20.81;49.89
46722;BME280;32455;43.430;23.136;2023-05-02T08:34:27;98538.97;;;20.90;50.24
46722;BME280;32455;43.430;23.136;2023-05-02T08:37:12;98543.75;;;21.13;47.12
46722;BME280;32455;43.430;23.136;2023-05-02T08:39:59;98538.88;;;21.05;45.66
46722;BME280;32455;43.430;23.136;2023-05-02T08:42:45;98538.19;;;21.34;46.44
46722;BME280;32455;43.430;23.136;2023-05-02T08:45:34;98538.59;;;21.51;44.33
46722;BME280;32455;43.430;23.136;2023-05-02T08:48:23;98536.59;;;21.62;42.39
46722;BME280;32455;43.430;23.136;2023-05-02T08:51:12;98534.25;;;21.79;43.01
46722;BME280;32455;43.430;23.136;2023-05-02T08:53:57;98532.38;;;21.74;42.01
46722;BME280;32455;43.430;23.136;2023-05-02T08:56:44;98510.69;;;21.83;42.73
46722;BME280;32455;43.430;23.136;2023-05-02T08:59:30;98519.34;;;21.95;42.06
46722;BME280;32455;43.430;23.136;2023-05-02T09:02:24;98521.22;;;22.00;41.01
46722;BME280;32455;43.430;23.136;2023-05-02T09:05:18;98530.03;;;21.97;38.53
46722;BME280;32455;43.430;23.136;2023-05-02T09:08:05;98518.78;;;21.98;39.92
46722;BME280;32455;43.430;23.136;2023-05-02T09:10:51;98525.16;;;22.18;39.14
46722;BME280;32455;43.430;23.136;2023-05-02T09:13:46;98522.34;;;22.28;40.59
46722;BME280;32455;43.430;23.136;2023-05-02T09:16:37;98518.94;;;22.12;40.06
46722;BME280;32455;43.430;23.136;2023-05-02T09:19:24;98527.31;;;22.21;39.67
46722;BME280;32455;43.430;23.136;2023-05-02T09:22:11;98510.78;;;22.55;37.17
46722;BME280;32455;43.430;23.136;2023-05-02T09:25:07;98512.06;;;22.63;39.42
46722;BME280;32455;43.430;23.136;2023-05-02T09:27:55;98511.75;;;22.64;36.67
46722;BME280;32455;43.430;23.136;2023-05-02T09:30:41;98512.66;;;22.60;37.88
46722;BME280;32455;43.430;23.136;2023-05-02T09:33:26;98507.56;;;22.72;37.62
46722;BME280;32455;43.430;23.136;2023-05-02T09:36:14;98497.09;;;22.98;37.04
46722;BME280;32455;43.430;23.136;2023-05-02T09:39:09;98509.81;;;22.89;35.34
46722;BME280;32455;43.430;23.136;2023-05-02T09:41:58;98500.38;;;23.00;35.89
46722;BME280;32455;43.430;23.136;2023-05-02T09:44:44;98473.94;;;23.09;35.99
46722;BME280;32455;43.430;23.136;2023-05-02T09:47:31;98508.44;;;23.10;34.40
46722;BME280;32455;43.430;23.136;2023-05-02T09:50:36;98497.03;;;23.22;36.98
46722;BME280;32455;43.430;23.136;2023-05-02T09:53:24;98486.81;;;23.09;35.61
46722;BME280;32455;43.430;23.136;2023-05-02T09:56:10;98500.28;;;23.24;36.96
46722;BME280;32455;43.430;23.136;2023-05-02T09:59:14;98483.47;;;22.93;36.60
46722;BME280;32455;43.430;23.136;2023-05-02T10:02:02;98475.91;;;23.22;36.01
46722;BME280;32455;43.430;23.136;2023-05-02T10:04:48;98478.78;;;23.12;38.65
46722;BME280;32455;43.430;23.136;2023-05-02T10:07:35;98460.28;;;23.23;36.80
46722;BME280;32455;43.430;23.136;2023-05-02T10:10:20;98474.69;;;23.47;34.23
46722;BME280;32455;43.430;23.136;2023-05-02T10:13:07;98487.38;;;23.43;37.55
46722;BME280;32455;43.430;23.136;2023-05-02T10:16:02;98475.19;;;23.49;34.24
46722;BME280;32455;43.430;23.136;2023-05-02T10:19:09;98474.50;;;23.25;36.26
46722;BME280;32455;43.430;23.136;2023-05-02T10:21:56;98476.94;;;23.59;34.91
46722;BME280;32455;43.430;23.136;2023-05-02T10:24:42;98482.94;;;23.47;35.43
46722;BME280;32455;43.430;23.136;2023-05-02T10:27:30;98475.78;;;23.46;35.30
46722;BME280;32455;43.430;23.136;2023-05-02T10:30:16;98465.44;;;23.43;36.11
46722;BME280;32455;43.430;23.136;2023-05-02T10:33:02;98470.31;;;23.65;37.30
46722;BME280;32455;43.430;23.136;2023-05-02T10:35:49;98454.88;;;23.69;36.44
46722;BME280;32455;43.430;23.136;2023-05-02T10:38:35;98454.78;;;23.74;34.91
46722;BME280;32455;43.430;23.136;2023-05-02T10:41:24;98450.50;;;23.68;35.45
46722;BME280;32455;43.430;23.136;2023-05-02T10:44:11;98458.13;;;23.71;34.65
46722;BME280;32455;43.430;23.136;2023-05-02T10:46:56;98457.53;;;23.74;34.43
46722;BME280;32455;43.430;23.136;2023-05-02T10:49:50;98450.53;;;23.63;37.08
46722;BME280;32455;43.430;23.136;2023-05-02T10:52:37;98451.16;;;23.60;36.24
46722;BME280;32455;43.430;23.136;2023-05-02T10:55:22;98456.13;;;23.77;35.36
46722;BME280;32455;43.430;23.136;2023-05-02T11:00:53;98437.41;;;23.93;34.82
46722;BME280;32455;43.430;23.136;2023-05-02T11:04:04;98452.69;;;23.99;32.38
46722;BME280;32455;43.430;23.136;2023-05-02T11:09:44;98449.91;;;23.20;37.98
46722;BME280;32455;43.430;23.136;2023-05-02T11:12:55;98451.38;;;23.31;36.08
46722;BME280;32455;43.430;23.136;2023-05-02T11:18:58;98442.09;;;23.79;38.39
46722;BME280;32455;43.430;23.136;2023-05-02T11:21:47;98427.38;;;24.16;36.95
46722;BME280;32455;43.430;23.136;2023-05-02T11:24:40;98434.00;;;24.29;36.87
46722;BME280;32455;43.430;23.136;2023-05-02T11:30:35;98415.06;;;24.27;34.35
46722;BME280;32455;43.430;23.136;2023-05-02T11:33:21;98436.72;;;24.15;33.59
46722;BME280;32455;43.430;23.136;2023-05-02T11:36:06;98432.25;;;24.05;32.96
46722;BME280;32455;43.430;23.136;2023-05-02T11:38:51;98438.34;;;24.02;32.82
46722;BME280;32455;43.430;23.136;2023-05-02T11:41:41;98423.59;;;23.98;34.64
46722;BME280;32455;43.430;23.136;2023-05-02T11:44:26;98417.31;;;24.11;37.08
46722;BME280;32455;43.430;23.136;2023-05-02T11:47:12;98425.81;;;24.23;34.67
46722;BME280;32455;43.430;23.136;2023-05-02T11:49:58;98413.56;;;24.07;34.43
46722;BME280;32455;43.430;23.136;2023-05-02T11:52:46;98395.03;;;23.99;34.74
46722;BME280;32455;43.430;23.136;2023-05-02T11:55:32;98397.66;;;24.18;34.39
46722;BME280;32455;43.430;23.136;2023-05-02T11:58:19;98411.50;;;24.27;34.34
46722;BME280;32455;43.430;23.136;2023-05-02T12:01:14;98405.28;;;24.35;33.78
46722;BME280;32455;43.430;23.136;2023-05-02T12:04:06;98402.16;;;24.14;35.40
46722;BME280;32455;43.430;23.136;2023-05-02T12:06:58;98389.31;;;24.37;33.86
46722;BME280;32455;43.430;23.136;2023-05-02T12:09:50;98382.38;;;24.53;35.83
46722;BME280;32455;43.430;23.136;2023-05-02T12:12:37;98385.13;;;24.53;32.76
46722;BME280;32455;43.430;23.136;2023-05-02T12:15:23;98390.44;;;24.49;32.97
46722;BME280;32455;43.430;23.136;2023-05-02T12:18:12;98371.31;;;24.31;34.08
46722;BME280;32455;43.430;23.136;2023-05-02T12:20:57;98387.41;;;24.37;33.38
46722;BME280;32455;43.430;23.136;2023-05-02T12:23:43;98377.94;;;24.02;33.67
46722;BME280;32455;43.430;23.136;2023-05-02T12:26:30;98376.41;;;24.23;33.06
46722;BME280;32455;43.430;23.136;2023-05-02T12:29:17;98367.75;;;24.30;33.25
46722;BME280;32455;43.430;23.136;2023-05-02T12:32:02;98377.25;;;24.38;34.58
46722;BME280;32455;43.430;23.136;2023-05-02T12:34:48;98365.00;;;24.30;33.88
46722;BME280;32455;43.430;23.136;2023-05-02T12:37:33;98373.94;;;24.49;35.25
46722;BME280;32455;43.430;23.136;2023-05-02T12:40:19;98362.38;;;24.39;34.29
46722;BME280;32455;43.430;23.136;2023-05-02T12:43:04;98350.03;;;24.36;34.76
46722;BME280;32455;43.430;23.136;2023-05-02T12:46:09;98351.56;;;24.79;34.46
46722;BME280;32455;43.430;23.136;2023-05-02T12:49:02;98341.16;;;24.67;33.30
46722;BME280;32455;43.430;23.136;2023-05-02T12:51:52;98335.81;;;24.70;33.57
46722;BME280;32455;43.430;23.136;2023-05-02T12:54:39;98332.19;;;24.61;34.03
46722;BME280;32455;43.430;23.136;2023-05-02T12:57:25;98336.69;;;24.57;33.91
46722;BME280;32455;43.430;23.136;2023-05-02T13:00:11;98344.44;;;24.55;33.67
46722;BME280;32455;43.430;23.136;2023-05-02T13:02:57;98325.75;;;24.30;33.65
46722;BME280;32455;43.430;23.136;2023-05-02T13:05:43;98332.38;;;24.29;34.02
46722;BME280;32455;43.430;23.136;2023-05-02T13:08:28;98322.53;;;24.00;33.61
46722;BME280;32455;43.430;23.136;2023-05-02T13:11:13;98310.88;;;23.94;33.48
46722;BME280;32455;43.430;23.136;2023-05-02T13:13:59;98314.44;;;23.95;35.47
46722;BME280;32455;43.430;23.136;2023-05-02T13:16:48;98320.91;;;24.13;34.04
46722;BME280;32455;43.430;23.136;2023-05-02T13:19:34;98313.72;;;24.03;34.59
46722;BME280;32455;43.430;23.136;2023-05-02T13:22:19;98318.69;;;24.01;34.22
46722;BME280;32455;43.430;23.136;2023-05-02T13:25:06;98319.09;;;24.08;34.00
46722;BME280;32455;43.430;23.136;2023-05-02T13:27:51;98308.47;;;24.29;33.00
46722;BME280;32455;43.430;23.136;2023-05-02T13:30:36;98316.41;;;24.67;33.85
46722;BME280;32455;43.430;23.136;2023-05-02T13:33:21;98302.84;;;24.48;32.63
46722;BME280;32455;43.430;23.136;2023-05-02T13:36:07;98316.03;;;24.60;34.53
46722;BME280;32455;43.430;23.136;2023-05-02T13:38:52;98312.03;;;24.30;33.95
46722;BME280;32455;43.430;23.136;2023-05-02T13:41:37;98295.41;;;24.35;34.73
46722;BME280;32455;43.430;23.136;2023-05-02T13:44:23;98308.84;;;24.50;32.14
46722;BME280;32455;43.430;23.136;2023-05-02T13:47:08;98302.66;;;24.31;33.59
46722;BME280;32455;43.430;23.136;2023-05-02T13:49:54;98303.09;;;24.38;33.22
46722;BME280;32455;43.430;23.136;2023-05-02T13:52:40;98310.28;;;24.34;33.24
46722;BME280;32455;43.430;23.136;2023-05-02T13:55:25;98307.22;;;24.35;33.02
46722;BME280;32455;43.430;23.136;2023-05-02T13:58:11;98302.03;;;24.47;32.95
46722;BME280;32455;43.430;23.136;2023-05-02T14:00:56;98295.13;;;24.50;33.02
46722;BME280;32455;43.430;23.136;2023-05-02T14:03:42;98286.88;;;24.50;32.38
46722;BME280;32455;43.430;23.136;2023-05-02T14:06:27;98286.88;;;24.50;32.10
46722;BME280;32455;43.430;23.136;2023-05-02T14:09:13;98286.50;;;24.29;32.10
46722;BME280;32455;43.430;23.136;2023-05-02T14:11:59;98297.47;;;24.43;32.47
46722;BME280;32455;43.430;23.136;2023-05-02T14:14:46;98293.03;;;24.56;31.66
46722;BME280;32455;43.430;23.136;2023-05-02T14:17:31;98297.78;;;24.41;32.10
46722;BME280;32455;43.430;23.136;2023-05-02T14:20:17;98296.53;;;24.47;32.37
46722;BME280;32455;43.430;23.136;2023-05-02T14:23:02;98295.13;;;24.50;31.35
46722;BME280;32455;43.430;23.136;2023-05-02T14:25:48;98298.16;;;24.48;32.19
46722;BME280;32455;43.430;23.136;2023-05-02T14:28:32;98283.28;;;24.49;32.12
46722;BME280;32455;43.430;23.136;2023-05-02T14:31:17;98298.53;;;24.56;31.34
46722;BME280;32455;43.430;23.136;2023-05-02T14:34:03;98291.16;;;24.42;32.55
46722;BME280;32455;43.430;23.136;2023-05-02T14:36:48;98286.22;;;24.53;31.71
46722;BME280;32455;43.430;23.136;2023-05-02T14:39:34;98281.72;;;24.57;32.36
46722;BME280;32455;43.430;23.136;2023-05-02T14:42:21;98282.50;;;24.71;32.12
46722;BME280;32455;43.430;23.136;2023-05-02T14:45:08;98281.88;;;24.52;30.57
46722;BME280;32455;43.430;23.136;2023-05-02T14:47:53;98278.56;;;24.28;32.03
46722;BME280;32455;43.430;23.136;2023-05-02T14:50:39;98286.09;;;24.22;30.84
46722;BME280;32455;43.430;23.136;2023-05-02T14:53:25;98277.38;;;24.20;32.53
46722;BME280;32455;43.430;23.136;2023-05-02T14:56:13;98286.13;;;24.08;32.70